Jericho, Mississippi
Current Conditions -  °F | °C
As of 7:53 PM on Sunday 23 Nov 2014 (Local Time) from KTUP Reporting Station
Few Clouds Few Clouds  
Wind Chill: 60°   Ceiling: Unl
Heat Index: 60°   Visibility: 10mi
Dew Point: 57°   Wind: 12mph
Humidity: 90%   Direction: 200°SSW
Pressure: 29.53"   Gusts: NA
Location:  34.5357°N, 88.6348°W
Report Text: KTUP 240153Z 20010KT 10SM FEW015 16/14 A2953 RMK AO2 SLP998 T01560139 $
Loading
Personal Weather Stations






























Interactive Weather Map New forecast layout! Learn more

10-Day Weather Forecast

Advertisements
Track Severe Weather on mobile